createdAt,value
2023-02-02T00:01:35.606Z,98585.41
2023-02-02T00:04:05.088Z,98601.88
2023-02-02T00:06:35.549Z,98606.16
2023-02-02T00:09:05.228Z,98608.41
2023-02-02T00:11:33.893Z,98611.06
2023-02-02T00:14:02.593Z,98618.59
2023-02-02T00:16:41.860Z,98606.97
2023-02-02T00:19:15.042Z,98624.03
2023-02-02T00:21:46.074Z,98609.00
2023-02-02T00:24:18.223Z,98606.56
2023-02-02T00:26:50.049Z,98610.22
2023-02-02T00:29:22.677Z,98603.31
2023-02-02T00:31:52.578Z,98597.63
2023-02-02T00:34:23.723Z,98614.34
2023-02-02T00:36:54.016Z,98602.09
2023-02-02T00:39:26.127Z,98609.00
2023-02-02T00:41:55.376Z,98607.34
2023-02-02T00:44:41.868Z,98599.00
2023-02-02T00:47:10.586Z,98603.28
2023-02-02T00:49:39.470Z,98592.69
2023-02-02T00:52:11.280Z,98598.81
2023-02-02T00:54:40.091Z,98596.38
2023-02-02T00:57:08.856Z,98601.03
2023-02-02T00:59:37.594Z,98596.34
2023-02-02T01:02:07.018Z,98597.97
2023-02-02T01:04:36.323Z,98606.56
2023-02-02T01:07:05.512Z,98598.56
2023-02-02T01:09:35.702Z,98593.09
2023-02-02T01:12:05.667Z,98597.63
2023-02-02T01:14:34.435Z,98603.28
2023-02-02T01:17:03.157Z,98598.41
2023-02-02T01:19:32.218Z,98593.91
2023-02-02T01:22:02.757Z,98587.34
2023-02-02T01:24:32.283Z,98597.13
2023-02-02T01:27:02.646Z,98600.38
2023-02-02T01:29:33.237Z,98607.75
2023-02-02T01:32:02.029Z,98598.78
2023-02-02T01:34:30.767Z,98596.78
2023-02-02T01:36:59.500Z,98602.88
2023-02-02T01:39:28.493Z,98592.09
2023-02-02T01:41:58.156Z,98598.44
2023-02-02T01:45:08.492Z,98590.28
2023-02-02T01:47:42.848Z,98595.78
2023-02-02T01:50:14.342Z,98591.53
2023-02-02T01:52:50.001Z,98595.19
2023-02-02T01:55:25.347Z,98589.91
2023-02-02T01:57:59.003Z,98593.53
2023-02-02T02:00:29.444Z,98568.75
2023-02-02T02:03:07.523Z,98586.22
2023-02-02T02:05:43.279Z,98584.19
2023-02-02T02:08:18.831Z,98592.75
2023-02-02T02:10:47.558Z,98576.88
2023-02-02T02:13:19.397Z,98587.06
2023-02-02T02:16:20.415Z,98588.25
2023-02-02T02:19:03.808Z,98590.28
2023-02-02T02:22:17.162Z,98596.00
2023-02-02T02:25:58.406Z,98607.78
2023-02-02T02:29:17.712Z,98598.44
2023-02-02T02:32:32.409Z,98608.22
2023-02-02T02:35:13.388Z,98603.75
2023-02-02T02:37:52.051Z,98603.94
2023-02-02T02:40:31.575Z,98613.09
2023-02-02T02:43:09.020Z,98607.84
2023-02-02T02:45:41.193Z,98598.91
2023-02-02T02:48:12.813Z,98597.31
2023-02-02T02:50:41.705Z,98604.03
2023-02-02T02:53:15.995Z,98609.09
2023-02-02T02:55:56.655Z,98607.09
2023-02-02T02:58:37.410Z,98603.00
2023-02-02T03:01:19.754Z,98602.19
2023-02-02T03:04:09.892Z,98601.81
2023-02-02T03:06:49.507Z,98598.13
2023-02-02T03:09:27.162Z,98592.03
2023-02-02T03:11:58.379Z,98602.44
2023-02-02T03:14:27.341Z,98605.50
2023-02-02T03:16:55.998Z,98598.16
2023-02-02T03:19:26.204Z,98601.41
2023-02-02T03:21:54.970Z,98601.81
2023-02-02T03:24:23.765Z,98605.88
2023-02-02T03:26:53.016Z,98616.25
2023-02-02T03:29:21.776Z,98620.34
2023-02-02T03:31:52.038Z,98612.41
2023-02-02T03:34:20.815Z,98614.41
2023-02-02T03:36:50.906Z,98615.47
2023-02-02T03:39:19.613Z,98624.84
2023-02-02T03:41:48.273Z,98630.16
2023-02-02T03:44:16.999Z,98623.81
2023-02-02T03:46:45.758Z,98621.56
2023-02-02T03:49:14.479Z,98620.97
2023-02-02T03:51:44.367Z,98629.28
2023-02-02T03:54:14.953Z,98644.19
2023-02-02T03:56:43.730Z,98639.28
2023-02-02T03:59:12.443Z,98658.03
2023-02-02T04:01:41.194Z,98647.44
2023-02-02T04:04:09.945Z,98642.53
2023-02-02T04:06:38.746Z,98655.41
2023-02-02T04:09:07.534Z,98655.78
2023-02-02T04:11:39.361Z,98649.06
2023-02-02T04:14:09.047Z,98643.56
2023-02-02T04:16:38.221Z,98642.16
2023-02-02T04:19:07.084Z,98650.69
2023-02-02T04:21:35.888Z,98646.66
2023-02-02T04:24:04.780Z,98656.03
2023-02-02T04:26:34.600Z,98664.59
2023-02-02T04:29:05.906Z,98670.69
2023-02-02T04:31:34.926Z,98679.22
2023-02-02T04:34:04.502Z,98662.13
2023-02-02T04:36:33.279Z,98660.47
2023-02-02T04:39:01.939Z,98651.13
2023-02-02T04:41:30.636Z,98665.56
2023-02-02T04:43:59.515Z,98670.25
2023-02-02T04:46:29.748Z,98684.09
2023-02-02T04:48:58.895Z,98675.56
2023-02-02T04:51:28.807Z,98678.81
2023-02-02T04:53:59.292Z,98686.59
2023-02-02T04:56:29.985Z,98684.56
2023-02-02T04:58:59.895Z,98686.38
2023-02-02T05:01:31.003Z,98691.91
2023-02-02T05:04:00.105Z,98692.28
2023-02-02T05:06:28.860Z,98688.22
2023-02-02T05:08:57.584Z,98700.88
2023-02-02T05:11:26.640Z,98702.06
2023-02-02T05:13:56.605Z,98695.13
2023-02-02T05:16:28.805Z,98699.97
2023-02-02T05:18:59.736Z,98710.00
2023-02-02T05:21:28.865Z,98701.25
2023-02-02T05:23:57.583Z,98707.81
2023-02-02T05:26:28.804Z,98709.78
2023-02-02T05:28:59.072Z,98710.59
2023-02-02T05:31:28.375Z,98711.44
2023-02-02T05:33:58.720Z,98718.75
2023-02-02T05:36:27.835Z,98711.63
2023-02-02T05:38:58.400Z,98718.53
2023-02-02T05:41:29.266Z,98721.94
2023-02-02T05:44:00.937Z,98726.28
2023-02-02T05:46:30.105Z,98717.72
2023-02-02T05:49:00.698Z,98721.38
2023-02-02T05:51:34.769Z,98717.13
2023-02-02T05:54:03.985Z,98733.81
2023-02-02T05:56:33.397Z,98732.63
2023-02-02T05:59:05.083Z,98737.88
2023-02-02T06:01:33.795Z,98750.50
2023-02-02T06:04:04.023Z,98750.13
2023-02-02T06:06:38.028Z,98753.38
2023-02-02T06:09:07.284Z,98760.31
2023-02-02T06:11:36.521Z,98762.72
2023-02-02T06:14:05.278Z,98774.34
2023-02-02T06:16:34.108Z,98762.94
2023-02-02T06:19:04.612Z,98775.97
2023-02-02T06:21:33.489Z,98779.44
2023-02-02T06:24:02.340Z,98782.31
2023-02-02T06:26:31.283Z,98777.47
2023-02-02T06:28:59.996Z,98796.63
2023-02-02T06:31:28.813Z,98792.94
2023-02-02T06:33:59.728Z,98787.28
2023-02-02T06:36:30.101Z,98776.28
2023-02-02T06:38:59.613Z,98786.47
2023-02-02T06:41:28.317Z,98794.78
2023-02-02T06:43:57.383Z,98797.22
2023-02-02T06:46:26.161Z,98799.88
2023-02-02T06:48:54.980Z,98797.88
2023-02-02T06:51:23.758Z,98797.22
2023-02-02T06:53:54.054Z,98806.84
2023-02-02T06:56:22.982Z,98813.72
2023-02-02T06:58:51.778Z,98818.63
2023-02-02T07:01:20.926Z,98814.13
2023-02-02T07:03:51.258Z,98817.22
2023-02-02T07:06:22.795Z,98812.13
2023-02-02T07:09:02.191Z,98828.84
2023-02-02T07:11:36.749Z,98832.91
2023-02-02T07:14:08.482Z,98839.44
2023-02-02T07:16:37.639Z,98846.41
2023-02-02T07:19:06.355Z,98840.69
2023-02-02T07:21:36.669Z,98846.84
2023-02-02T07:24:08.737Z,98846.00
2023-02-02T07:26:38.324Z,98851.50
2023-02-02T07:29:07.217Z,98848.47
2023-02-02T07:31:36.882Z,98852.16
2023-02-02T07:34:05.877Z,98846.78
2023-02-02T07:36:35.164Z,98858.25
2023-02-02T07:39:07.802Z,98859.91
2023-02-02T07:41:38.329Z,98858.25
2023-02-02T07:44:17.760Z,98855.38
2023-02-02T07:46:48.391Z,98862.06
2023-02-02T07:49:20.403Z,98866.59
2023-02-02T07:51:49.446Z,98869.44
2023-02-02T07:54:19.591Z,98874.94
2023-02-02T07:56:48.453Z,98878.41
2023-02-02T07:59:17.157Z,98881.47
2023-02-02T08:01:45.868Z,98882.09
2023-02-02T08:04:15.679Z,98886.75
2023-02-02T08:06:44.473Z,98875.38
2023-02-02T08:09:13.154Z,98883.53
2023-02-02T08:11:43.313Z,98881.94
2023-02-02T08:14:15.185Z,98888.25
2023-02-02T08:16:43.846Z,98885.00
2023-02-02T08:19:12.882Z,98894.91
2023-02-02T08:21:41.633Z,98896.16
2023-02-02T08:24:10.432Z,98903.91
2023-02-02T08:26:39.133Z,98909.47
2023-02-02T08:29:11.421Z,98911.28
2023-02-02T08:31:42.893Z,98915.00
2023-02-02T08:34:12.396Z,98919.53
2023-02-02T08:36:41.316Z,98924.63
2023-02-02T08:39:14.410Z,98917.94
2023-02-02T08:41:43.129Z,98928.53
2023-02-02T08:44:17.229Z,98923.41
2023-02-02T08:46:47.234Z,98929.13
2023-02-02T08:49:16.265Z,98935.03
2023-02-02T08:51:44.978Z,98926.06
2023-02-02T08:54:13.759Z,98937.44
2023-02-02T08:56:42.482Z,98937.25
2023-02-02T08:59:12.596Z,98933.84
2023-02-02T09:01:41.320Z,98939.56
2023-02-02T09:04:17.284Z,98939.56
2023-02-02T09:06:46.533Z,98937.31
2023-02-02T09:09:17.751Z,98944.44
2023-02-02T09:11:46.658Z,98951.78
2023-02-02T09:14:16.868Z,98951.41
2023-02-02T09:16:45.634Z,98951.41
2023-02-02T09:19:14.592Z,98959.97
2023-02-02T09:21:43.286Z,98957.53
2023-02-02T09:24:14.535Z,98951.19
2023-02-02T09:26:45.821Z,98959.94
2023-02-02T09:29:18.989Z,98955.47
2023-02-02T09:31:48.079Z,98967.06
2023-02-02T09:34:17.655Z,98965.66
2023-02-02T09:36:47.546Z,98967.31
2023-02-02T09:39:17.869Z,98974.47
2023-02-02T09:42:18.665Z,98982.41
2023-02-02T09:45:09.314Z,98990.78
2023-02-02T09:47:55.516Z,98980.81
2023-02-02T09:50:42.328Z,98986.13
2023-02-02T09:53:26.909Z,98997.34
2023-02-02T09:56:01.707Z,98994.31
2023-02-02T09:58:37.199Z,99002.06
2023-02-02T10:01:14.378Z,98993.44
2023-02-02T10:03:51.322Z,99012.03
2023-02-02T10:06:35.656Z,99001.63
2023-02-02T10:09:22.731Z,99006.88
2023-02-02T10:12:01.842Z,99013.00
2023-02-02T10:14:38.230Z,99013.00
2023-02-02T10:17:33.909Z,99016.66
2023-02-02T10:20:16.988Z,99008.09
2023-02-02T10:22:49.376Z,99008.22
2023-02-02T10:25:19.337Z,99026.16
2023-02-02T10:28:02.420Z,99017.41
2023-02-02T10:30:47.562Z,99022.38
2023-02-02T10:33:32.697Z,99017.69
2023-02-02T10:36:17.741Z,99016.31
2023-02-02T10:39:00.852Z,99012.88
2023-02-02T10:41:42.820Z,99016.38
2023-02-02T10:44:29.442Z,99023.69
2023-02-02T10:47:03.382Z,99014.50
2023-02-02T10:49:38.161Z,99016.75
2023-02-02T10:52:18.774Z,99024.19
2023-02-02T10:55:04.139Z,99029.25
2023-02-02T10:58:01.462Z,99033.06
2023-02-02T11:00:42.141Z,99035.72
2023-02-02T11:03:15.354Z,99045.25
2023-02-02T11:06:03.336Z,99037.69
2023-02-02T11:08:36.394Z,99037.31
2023-02-02T11:11:18.998Z,99037.72
2023-02-02T11:13:58.162Z,99045.72
2023-02-02T11:16:42.234Z,99051.88
2023-02-02T11:19:43.978Z,99040.88
2023-02-02T11:22:29.876Z,99046.16
2023-02-02T11:25:02.760Z,99045.72
2023-02-02T11:27:39.621Z,99044.19
2023-02-02T11:30:29.314Z,99043.84
2023-02-02T11:32:58.043Z,99051.03
2023-02-02T11:35:30.817Z,99050.63
2023-02-02T11:38:10.936Z,99054.84
2023-02-02T11:40:43.674Z,99059.13
2023-02-02T11:43:20.967Z,99067.03
2023-02-02T11:46:02.302Z,99075.72
2023-02-02T11:48:36.171Z,99074.13
2023-02-02T11:51:09.081Z,99080.59
2023-02-02T11:53:48.298Z,99070.91
2023-02-02T11:56:25.147Z,99070.91
2023-02-02T11:58:56.643Z,99076.56
2023-02-02T12:01:29.032Z,99072.09
2023-02-02T12:04:00.366Z,99083.66
2023-02-02T12:06:37.629Z,99066.78
2023-02-02T12:09:16.157Z,99076.78
2023-02-02T12:12:03.317Z,99064.38
2023-02-02T12:14:47.904Z,99068.31
2023-02-02T12:17:39.014Z,99070.19
2023-02-02T12:20:31.687Z,99071.81
2023-02-02T12:23:23.964Z,99071.81
2023-02-02T12:26:25.176Z,99075.25
2023-02-02T12:29:35.520Z,99065.81
2023-02-02T12:32:28.151Z,99068.31
2023-02-02T12:35:22.861Z,99071.09
2023-02-02T12:38:07.783Z,99076.44
2023-02-02T12:41:07.167Z,99079.72
2023-02-02T12:49:07.402Z,99074.97
2023-02-02T12:51:53.707Z,99092.63
2023-02-02T12:54:55.688Z,99089.16
2023-02-02T12:57:40.481Z,99090.19
2023-02-02T13:00:34.039Z,99095.94
2023-02-02T13:03:22.739Z,99086.19
2023-02-02T13:06:16.992Z,99088.84
2023-02-02T13:08:58.060Z,99097.66
2023-02-02T13:11:40.017Z,99096.28
2023-02-02T13:14:16.319Z,99106.75
2023-02-02T13:16:51.547Z,99107.34
2023-02-02T13:19:32.896Z,99113.09
2023-02-02T13:22:08.240Z,99117.34
2023-02-02T13:24:45.880Z,99117.75
2023-02-02T13:27:20.902Z,99125.84
2023-02-02T13:29:56.978Z,99129.75
2023-02-02T13:32:33.177Z,99135.31
2023-02-02T13:35:15.763Z,99136.97
2023-02-02T13:37:53.855Z,99143.34
2023-02-02T13:40:32.243Z,99143.50
2023-02-02T13:43:17.463Z,99163.31
2023-02-02T13:46:05.099Z,99172.03
2023-02-02T13:48:46.136Z,99165.09
2023-02-02T13:51:51.183Z,99174.09
2023-02-02T13:55:25.548Z,99182.81
2023-02-02T13:58:39.070Z,99184.63
2023-02-02T14:01:13.525Z,99183.41
2023-02-02T14:03:45.183Z,99192.03
2023-02-02T14:06:20.270Z,99198.56
2023-02-02T14:08:55.459Z,99200.00
2023-02-02T14:11:31.713Z,99207.94
2023-02-02T14:14:27.605Z,99220.19
2023-02-02T14:16:56.944Z,99211.97
2023-02-02T14:19:54.759Z,99213.63
2023-02-02T14:22:47.854Z,99209.06
2023-02-02T14:25:53.487Z,99215.66
2023-02-02T14:28:51.972Z,99218.19
2023-02-02T14:31:54.664Z,99228.97
2023-02-02T14:34:35.833Z,99230.16
2023-02-02T14:37:38.613Z,99226.13
2023-02-02T14:40:49.688Z,99231.00
2023-02-02T14:43:46.310Z,99234.19
2023-02-02T14:46:35.769Z,99234.59
2023-02-02T14:49:27.056Z,99245.25
2023-02-02T14:52:03.114Z,99247.47
2023-02-02T14:54:41.421Z,99243.56
2023-02-02T14:57:28.639Z,99251.19
2023-02-02T15:00:01.313Z,99268.13
2023-02-02T15:02:38.960Z,99266.91
2023-02-02T15:05:41.899Z,99269.81
2023-02-02T15:08:25.284Z,99284.16
2023-02-02T15:11:27.534Z,99282.88
2023-02-02T15:14:16.071Z,99289.59
2023-02-02T15:16:47.628Z,99286.13
2023-02-02T15:19:33.169Z,99291.44
2023-02-02T15:22:23.737Z,99290.16
2023-02-02T15:24:54.967Z,99298.84
2023-02-02T15:27:25.970Z,99294.56
2023-02-02T15:30:02.779Z,99302.53
2023-02-02T15:32:34.202Z,99304.78
2023-02-02T15:35:09.166Z,99318.53
2023-02-02T15:37:45.267Z,99321.34
2023-02-02T15:40:23.032Z,99329.59
2023-02-02T15:42:57.496Z,99334.06
2023-02-02T15:45:44.932Z,99337.72
2023-02-02T15:48:29.995Z,99347.31
2023-02-02T15:51:06.968Z,99359.22
2023-02-02T15:53:52.081Z,99370.66
2023-02-02T15:56:30.598Z,99381.31
2023-02-02T15:59:01.879Z,99378.53
2023-02-02T16:01:46.309Z,99393.88
2023-02-02T16:04:23.791Z,99386.09
2023-02-02T16:06:55.757Z,99387.56
2023-02-02T16:09:29.874Z,99391.41
2023-02-02T16:58:04.909Z,99479.81
2023-02-02T17:06:56.090Z,99497.06
2023-02-02T17:09:50.350Z,99496.44
2023-02-02T17:15:35.625Z,99522.53
2023-02-02T17:18:07.098Z,99518.69
2023-02-02T17:20:36.108Z,99524.00
2023-02-02T17:23:19.394Z,99531.13
2023-02-02T17:25:49.132Z,99541.63
2023-02-02T17:28:22.670Z,99537.06
2023-02-02T17:31:01.602Z,99547.66
2023-02-02T17:33:36.583Z,99549.19
2023-02-02T17:36:07.256Z,99552.91
2023-02-02T17:38:39.573Z,99564.63
2023-02-02T17:41:08.725Z,99564.25
2023-02-02T17:43:39.811Z,99570.56
2023-02-02T17:46:14.448Z,99572.31
2023-02-02T17:48:47.688Z,99574.50
2023-02-02T17:51:18.948Z,99578.72
2023-02-02T17:53:49.022Z,99582.50
2023-02-02T17:56:21.323Z,99581.38
2023-02-02T17:58:53.693Z,99596.19
2023-02-02T18:01:23.427Z,99592.28
2023-02-02T18:03:55.618Z,99602.72
2023-02-02T18:06:24.598Z,99600.13
2023-02-02T18:08:54.366Z,99598.31
2023-02-02T18:11:25.271Z,99601.25
2023-02-02T18:13:57.646Z,99594.75
2023-02-02T18:16:35.501Z,99599.72
2023-02-02T18:19:06.556Z,99593.06
2023-02-02T18:21:37.138Z,99598.19
2023-02-02T18:24:07.105Z,99607.91
2023-02-02T18:26:36.536Z,99623.63
2023-02-02T18:29:06.425Z,99620.22
2023-02-02T18:31:41.981Z,99620.94
2023-02-02T18:34:14.547Z,99622.16
2023-02-02T18:36:45.058Z,99631.88
2023-02-02T18:39:17.502Z,99640.34
2023-02-02T18:41:47.398Z,99639.47
2023-02-02T18:44:17.388Z,99653.78
2023-02-02T18:46:46.497Z,99653.78
2023-02-02T18:49:16.986Z,99657.31
2023-02-02T18:51:47.340Z,99647.91
2023-02-02T18:54:16.209Z,99660.59
2023-02-02T18:56:49.853Z,99654.47
2023-02-02T18:59:21.831Z,99654.97
2023-02-02T19:01:51.683Z,99645.19
2023-02-02T19:04:22.520Z,99651.69
2023-02-02T19:07:08.806Z,99649.53
2023-02-02T19:09:38.033Z,99662.19
2023-02-02T19:12:15.138Z,99662.19
2023-02-02T19:14:48.947Z,99665.19
2023-02-02T19:17:25.399Z,99662.81
2023-02-02T19:20:04.046Z,99655.88
2023-02-02T19:22:34.168Z,99662.56
2023-02-02T19:25:15.454Z,99660.72
2023-02-02T19:27:44.450Z,99655.75
2023-02-02T19:30:22.952Z,99663.25
2023-02-02T19:32:52.557Z,99656.63
2023-02-02T19:35:26.355Z,99663.13
2023-02-02T19:38:03.984Z,99654.69
2023-02-02T19:40:32.753Z,99661.97
2023-02-02T19:43:24.770Z,99662.13
2023-02-02T19:45:54.452Z,99663.00
2023-02-02T19:48:29.433Z,99672.94
2023-02-02T19:51:01.016Z,99668.81
2023-02-02T19:53:39.436Z,99670.16
2023-02-02T19:56:26.079Z,99670.16
2023-02-02T19:58:56.120Z,99662.72
2023-02-02T20:01:31.255Z,99672.38
2023-02-02T20:04:00.273Z,99674.69
2023-02-02T20:06:35.011Z,99675.19
2023-02-02T20:09:14.467Z,99669.41
2023-02-02T20:11:46.216Z,99669.72
2023-02-02T20:14:32.344Z,99677.66
2023-02-02T20:17:07.732Z,99676.19
2023-02-02T20:19:42.740Z,99680.34
2023-02-02T20:22:26.850Z,99673.38
2023-02-02T20:25:02.622Z,99680.47
2023-02-02T20:27:35.637Z,99679.81
2023-02-02T20:30:24.228Z,99676.28
2023-02-02T20:32:59.245Z,99678.56
2023-02-02T20:35:37.713Z,99685.00
2023-02-02T20:38:23.115Z,99683.84
2023-02-02T20:40:53.335Z,99687.00
2023-02-02T20:43:22.498Z,99696.94
2023-02-02T20:45:52.405Z,99691.81
2023-02-02T20:48:21.450Z,99686.34
2023-02-02T20:50:50.255Z,99680.53
2023-02-02T20:53:20.483Z,99682.84
2023-02-02T20:55:49.273Z,99682.69
2023-02-02T20:58:20.638Z,99684.31
2023-02-02T21:00:49.350Z,99688.81
2023-02-02T21:03:18.558Z,99676.56
2023-02-02T21:05:47.446Z,99681.53
2023-02-02T21:08:16.119Z,99684.84
2023-02-02T21:10:46.243Z,99683.84
2023-02-02T21:13:15.048Z,99674.25
2023-02-02T21:15:43.729Z,99678.06
2023-02-02T21:18:12.458Z,99679.72
2023-02-02T21:20:41.108Z,99682.19
2023-02-02T21:23:10.259Z,99682.88
2023-02-02T21:25:39.003Z,99680.59
2023-02-02T21:28:09.054Z,99674.97
2023-02-02T21:30:38.047Z,99680.09
2023-02-02T21:33:06.930Z,99678.94
2023-02-02T21:35:35.968Z,99678.63
2023-02-02T21:38:14.612Z,99678.63
2023-02-02T21:40:43.709Z,99678.44
2023-02-02T21:43:18.718Z,99673.31
2023-02-02T21:45:51.961Z,99674.50
2023-02-02T21:48:33.961Z,99663.91
2023-02-02T21:51:24.501Z,99665.06
2023-02-02T21:53:53.767Z,99661.59
2023-02-02T21:56:33.757Z,99669.72
2023-02-02T21:59:14.239Z,99666.25
2023-02-02T22:01:43.705Z,99665.41
2023-02-02T22:04:25.265Z,99670.41
2023-02-02T22:06:58.077Z,99673.03
2023-02-02T22:09:30.668Z,99672.88
2023-02-02T22:12:02.084Z,99674.72
2023-02-02T22:14:40.613Z,99673.38
2023-02-02T22:17:23.220Z,99674.72
2023-02-02T22:19:55.880Z,99673.88
2023-02-02T22:22:27.977Z,99665.59
2023-02-02T22:25:01.544Z,99674.03
2023-02-02T22:27:43.546Z,99677.69
2023-02-02T22:30:29.045Z,99664.47
2023-02-02T22:32:57.964Z,99666.47
2023-02-02T22:35:26.989Z,99670.78
2023-02-02T22:37:55.720Z,99671.44
2023-02-02T22:40:25.255Z,99669.47
2023-02-02T22:42:57.117Z,99666.13
2023-02-02T22:45:27.626Z,99660.53
2023-02-02T22:47:56.685Z,99671.81
2023-02-02T22:50:29.106Z,99670.63
2023-02-02T22:52:58.257Z,99659.75
2023-02-02T22:55:26.966Z,99648.66
2023-02-02T22:57:55.720Z,99646.97
2023-02-02T23:00:28.586Z,99648.16
2023-02-02T23:02:58.347Z,99637.06
2023-02-02T23:05:28.875Z,99636.38
2023-02-02T23:07:57.974Z,99634.25
2023-02-02T23:10:29.675Z,99637.88
2023-02-02T23:12:59.511Z,99638.84
2023-02-02T23:15:30.981Z,99632.75
2023-02-02T23:17:59.975Z,99637.34
2023-02-02T23:20:29.609Z,99624.81
2023-02-02T23:22:58.374Z,99631.78
2023-02-02T23:25:27.073Z,99630.78
2023-02-02T23:27:55.874Z,99633.06
2023-02-02T23:30:25.249Z,99641.31
2023-02-02T23:32:55.608Z,99640.34
2023-02-02T23:35:24.375Z,99642.69
2023-02-02T23:37:53.150Z,99645.63
2023-02-02T23:40:22.005Z,99634.16
2023-02-02T23:42:50.702Z,99632.38
2023-02-02T23:45:19.573Z,99635.47
2023-02-02T23:47:48.354Z,99629.03
2023-02-02T23:50:18.734Z,99621.94
2023-02-02T23:52:47.452Z,99619.59
2023-02-02T23:55:17.084Z,99624.25
2023-02-02T23:57:45.874Z,99623.44
